Station Historical Data
Daily Summary for February 14, 2017 Units:  Metric    English   Both
« Previous Day
Next Day »
Daily Weekly Monthly Yearly Custom
  High: Low: Average:
Temperature: 5.6 °C -4.9 °C 0.7 °C
Dew Point: 0.4 °C -7.2 °C -3.2 °C
Humidity: 87% 55% 76%
Wind Speed: 33.8km/h 0km/h 8.9km/h
Wind Gust: 49.9km/h - -
Wind- - SW
Pressure: 1017.2 hPa 999.9 hPa -
Precipitation: 0 mm    
Historical Graphs
 
 
Tabular Data for February 14, 2017
Time Temperature Dew Point Pressure Wind Wind Speed Wind Gust Humidity Rainfall Rate (Hourly)
00:04 -4.7 °C -7.2 °C 1017.2 hPa Calm   1.6 km/h 83% 0 mm
00:09 -4.7 °C -7.1 °C 1016.8 hPa Calm     83% 0 mm
00:14 -4.6 °C -6.9 °C 1016.8 hPa Calm     84% 0 mm
00:19 -4.5 °C -6.8 °C 1016.5 hPa Calm   3.2 km/h 84% 0 mm
00:24 -4.1 °C -6.2 °C 1016.5 hPa SSW 1.6 km/h 6.4 km/h 85% 0 mm
00:29 -3.6 °C -5.6 °C 1016.5 hPa SSW 3.2 km/h 6.4 km/h 86% 0 mm
00:34 -3 °C -5 °C 1016.1 hPa SW 3.2 km/h 8 km/h 86% 0 mm
00:39 -2.8 °C -4.9 °C 1016.1 hPa SSW 4.8 km/h 8 km/h 85% 0 mm
00:44 -2.7 °C -4.9 °C 1016.1 hPa SSW 1.6 km/h 8 km/h 85% 0 mm
00:49 -2.8 °C -5.2 °C 1015.8 hPa SSW 6.4 km/h 6.4 km/h 84% 0 mm
00:54 -2.9 °C -5.2 °C 1015.8 hPa SSW 4.8 km/h 8 km/h 84% 0 mm
00:59 -3 °C -5.3 °C 1015.8 hPa SSW 4.8 km/h 8 km/h 84% 0 mm
01:04 -3.2 °C -5.5 °C 1015.8 hPa South 3.2 km/h 8 km/h 84% 0 mm
01:09 -3.3 °C -5.7 °C 1015.8 hPa South 3.2 km/h 9.7 km/h 84% 0 mm
01:14 -3.4 °C -5.8 °C 1015.8 hPa SSW 1.6 km/h 8 km/h 84% 0 mm
01:19 -3.6 °C -5.9 °C 1015.8 hPa South 1.6 km/h 6.4 km/h 84% 0 mm
01:24 -3.7 °C -6 °C 1015.8 hPa SSW 3.2 km/h 6.4 km/h 84% 0 mm
01:29 -3.7 °C -6.1 °C 1015.5 hPa South 3.2 km/h 6.4 km/h 84% 0 mm
01:34 -3.8 °C -6.2 °C 1015.5 hPa SSW 3.2 km/h 6.4 km/h 84% 0 mm
01:39 -3.9 °C -6.2 °C 1015.5 hPa SSW 3.2 km/h 4.8 km/h 84% 0 mm
01:44 -4 °C -6.3 °C 1015.5 hPa SSW 1.6 km/h 3.2 km/h 84% 0 mm
01:49 -4.1 °C -6.2 °C 1015.5 hPa South 3.2 km/h 6.4 km/h 85% 0 mm
01:54 -4.1 °C -6.3 °C 1015.5 hPa South 1.6 km/h 4.8 km/h 85% 0 mm
01:59 -4.1 °C -6.3 °C 1015.1 hPa South 3.2 km/h 6.4 km/h 85% 0 mm
02:04 -4.1 °C -6.3 °C 1015.1 hPa South 3.2 km/h 6.4 km/h 85% 0 mm
02:09 -4.1 °C -6.2 °C 1015.1 hPa South 3.2 km/h 6.4 km/h 85% 0 mm
02:14 -4.1 °C -6.2 °C 1015.1 hPa South 3.2 km/h 6.4 km/h 85% 0 mm
02:19 -4.1 °C -6.3 °C 1014.8 hPa South 3.2 km/h 6.4 km/h 85% 0 mm
02:24 -4.1 °C -6.3 °C 1014.8 hPa SSW 8 km/h 8 km/h 85% 0 mm
02:29 -4.1 °C -6.3 °C 1014.8 hPa SSW 4.8 km/h 9.7 km/h 84% 0 mm
02:34 -4 °C -6.3 °C 1014.8 hPa SSW 4.8 km/h 9.7 km/h 84% 0 mm
02:39 -4 °C -6.3 °C 1014.4 hPa SSW 3.2 km/h 9.7 km/h 84% 0 mm
02:44 -3.9 °C -6.2 °C 1014.4 hPa South 3.2 km/h 6.4 km/h 84% 0 mm
02:49 -4.1 °C -6.5 °C 1014.4 hPa South 6.4 km/h 8 km/h 83% 0 mm
02:54 -4.1 °C -6.4 °C 1014.4 hPa South 3.2 km/h 6.4 km/h 84% 0 mm
02:59 -4.3 °C -6.6 °C 1014.4 hPa South 3.2 km/h 6.4 km/h 84% 0 mm
03:04 -4.3 °C -6.6 °C 1014.4 hPa South 3.2 km/h 6.4 km/h 84% 0 mm
03:09 -4.4 °C -6.7 °C 1014.4 hPa South 3.2 km/h 4.8 km/h 84% 0 mm
03:14 -4.6 °C -6.8 °C 1014.4 hPa South 3.2 km/h 4.8 km/h 84% 0 mm
03:19 -4.6 °C -6.7 °C 1014.1 hPa SSW 3.2 km/h 6.4 km/h 85% 0 mm
03:24 -4.6 °C -6.9 °C 1014.1 hPa Calm   3.2 km/h 84% 0 mm
03:29 -4.7 °C -6.9 °C 1014.1 hPa South 1.6 km/h 4.8 km/h 84% 0 mm
03:34 -4.8 °C -6.9 °C 1014.1 hPa South 1.6 km/h 4.8 km/h 85% 0 mm
03:39 -4.8 °C -6.9 °C 1013.8 hPa South 1.6 km/h 4.8 km/h 85% 0 mm
03:44 -4.8 °C -6.9 °C 1013.8 hPa South 1.6 km/h 4.8 km/h 85% 0 mm
03:49 -4.8 °C -6.9 °C 1013.8 hPa South 3.2 km/h 4.8 km/h 85% 0 mm
03:54 -4.8 °C -6.9 °C 1013.8 hPa SSW 1.6 km/h 6.4 km/h 85% 0 mm
03:59 -4.9 °C -7 °C 1013.8 hPa South 1.6 km/h 4.8 km/h 85% 0 mm
04:04 -4.9 °C -7.1 °C 1013.4 hPa South 1.6 km/h 4.8 km/h 85% 0 mm
04:09 -4.9 °C -7.1 °C 1013.4 hPa South 3.2 km/h 6.4 km/h 85% 0 mm
04:14 -4.9 °C -7 °C 1013.4 hPa South 3.2 km/h 6.4 km/h 85% 0 mm
04:19 -4.9 °C -7 °C 1013.1 hPa South 3.2 km/h 4.8 km/h 85% 0 mm
04:24 -4.9 °C -7 °C 1013.1 hPa South 3.2 km/h 4.8 km/h 85% 0 mm
04:29 -4.8 °C -6.9 °C 1013.1 hPa South 3.2 km/h 6.4 km/h 85% 0 mm
04:34 -4.8 °C -6.9 °C 1013.1 hPa South 1.6 km/h 4.8 km/h 85% 0 mm
04:39 -4.8 °C -6.9 °C 1012.8 hPa South 3.2 km/h 6.4 km/h 85% 0 mm
04:44 -4.7 °C -6.8 °C 1012.8 hPa South 1.6 km/h 6.4 km/h 85% 0 mm
04:49 -4.7 °C -7 °C 1012.8 hPa South 3.2 km/h 4.8 km/h 84% 0 mm
04:54 -4.8 °C -7.1 °C 1012.4 hPa South 3.2 km/h 6.4 km/h 84% 0 mm
04:59 -4.7 °C -7 °C 1012.4 hPa SSE 3.2 km/h 6.4 km/h 84% 0 mm
05:04 -4.7 °C -6.8 °C 1012.4 hPa SSE 3.2 km/h 4.8 km/h 85% 0 mm
05:09 -4.6 °C -6.7 °C 1012.1 hPa SSE 1.6 km/h 6.4 km/h 85% 0 mm
05:14 -4.5 °C -6.7 °C 1012.1 hPa SSE 4.8 km/h 6.4 km/h 85% 0 mm
05:19 -4.4 °C -6.6 °C 1011.7 hPa South 3.2 km/h 6.4 km/h 85% 0 mm
05:24 -4.3 °C -6.4 °C 1011.7 hPa South 3.2 km/h 8 km/h 85% 0 mm
05:29 -4.2 °C -6.3 °C 1011.7 hPa South 6.4 km/h 9.7 km/h 85% 0 mm
05:34 -4.1 °C -6.3 °C 1011.7 hPa South 3.2 km/h 8 km/h 84% 0 mm
05:44 -3.9 °C -6.2 °C 1011.4 hPa SSW 3.2 km/h 6.4 km/h 84% 0 mm
05:49 -3.8 °C -6.1 °C 1011.4 hPa South 4.8 km/h 9.7 km/h 84% 0 mm
05:54 -3.7 °C -6.1 °C 1011.4 hPa South 4.8 km/h 9.7 km/h 84% 0 mm
05:59 -3.6 °C -5.9 °C 1011.1 hPa South 3.2 km/h 6.4 km/h 84% 0 mm
06:04 -3.6 °C -6 °C 1011.1 hPa South 4.8 km/h 8 km/h 83% 0 mm
06:09 -3.5 °C -5.9 °C 1011.1 hPa South 3.2 km/h 8 km/h 83% 0 mm
06:14 -3.4 °C -5.9 °C 1011.1 hPa South 3.2 km/h 6.4 km/h 83% 0 mm
06:19 -3.4 °C -5.9 °C 1011.1 hPa South 1.6 km/h 3.2 km/h 83% 0 mm
06:24 -3.4 °C -5.9 °C 1011.1 hPa South 1.6 km/h 3.2 km/h 83% 0 mm
06:29 -3.3 °C -5.8 °C 1011.1 hPa Calm   3.2 km/h 83% 0 mm
06:34 -3.4 °C -5.9 °C 1010.7 hPa South 3.2 km/h 4.8 km/h 83% 0 mm
06:39 -3.3 °C -5.8 °C 1010.7 hPa South 4.8 km/h 4.8 km/h 83% 0 mm
06:44 -3.3 °C -5.8 °C 1011.1 hPa South 3.2 km/h 6.4 km/h 83% 0 mm
06:49 -3.3 °C -5.8 °C 1011.1 hPa SSW 3.2 km/h 8 km/h 83% 0 mm
06:54 -3.2 °C -5.7 °C 1011.1 hPa South 3.2 km/h 8 km/h 83% 0 mm
06:59 -3.1 °C -5.6 °C 1010.7 hPa South 3.2 km/h 6.4 km/h 83% 0 mm
07:04 -3.1 °C -5.7 °C 1010.7 hPa SSW 3.2 km/h 8 km/h 82% 0 mm
07:09 -2.9 °C -5.6 °C 1010.7 hPa SSW 3.2 km/h 8 km/h 82% 0 mm
07:14 -2.9 °C -5.6 °C 1010.7 hPa South 4.8 km/h 8 km/h 82% 0 mm
07:19 -2.8 °C -5.7 °C 1010.7 hPa SSW 4.8 km/h 11.3 km/h 81% 0 mm
07:24 -2.7 °C -5.6 °C 1010.7 hPa South 6.4 km/h 8 km/h 81% 0 mm
07:29 -2.7 °C -5.5 °C 1010.4 hPa South 4.8 km/h 11.3 km/h 81% 0 mm
07:34 -2.5 °C -5.5 °C 1010.4 hPa South 6.4 km/h 12.9 km/h 80% 0 mm
07:39 -2.4 °C -5.4 °C 1010.4 hPa South 3.2 km/h 11.3 km/h 80% 0 mm
07:44 -2.3 °C -5.4 °C 1010.4 hPa South 3.2 km/h 11.3 km/h 79% 0 mm
07:49 -2.2 °C -5.3 °C 1010.4 hPa SW 6.4 km/h 16.1 km/h 79% 0 mm
07:54 -2.1 °C -5.2 °C 1010.4 hPa SSW 6.4 km/h 11.3 km/h 79% 0 mm
07:59 -1.9 °C -5.3 °C 1010.4 hPa SSW 6.4 km/h 11.3 km/h 78% 0 mm
08:04 -1.9 °C -5.2 °C 1010 hPa South 6.4 km/h 11.3 km/h 78% 0 mm
08:09 -1.9 °C -5.2 °C 1010 hPa South 6.4 km/h 12.9 km/h 78% 0 mm
08:14 -1.8 °C -5.3 °C 1010 hPa South 6.4 km/h 12.9 km/h 77% 0 mm
08:19 -1.8 °C -5.2 °C 1009.7 hPa South 3.2 km/h 12.9 km/h 78% 0 mm
08:24 -1.7 °C -5.1 °C 1009.7 hPa South 4.8 km/h 12.9 km/h 78% 0 mm
08:29 -1.6 °C -4.9 °C 1009.7 hPa SW 6.4 km/h 11.3 km/h 78% 0 mm
08:34 -0.9 °C -4.6 °C 1009.4 hPa South 6.4 km/h 12.9 km/h 76% 0 mm
08:39 -0.3 °C -4.4 °C 1009.4 hPa South 8 km/h 16.1 km/h 74% 0 mm
08:44 0.1 °C -4.2 °C 1009.4 hPa South 8 km/h 16.1 km/h 73% 0 mm
08:49 0.4 °C -4.1 °C 1009 hPa SSW 11.3 km/h 12.9 km/h 72% 0 mm
08:54 0.7 °C -3.9 °C 1009 hPa South 6.4 km/h 12.9 km/h 71% 0 mm
08:59 1.2 °C -3.8 °C 1009 hPa SSW 8 km/h 17.7 km/h 69% 0 mm
09:04 1.6 °C -4.1 °C 1009 hPa SSW 9.7 km/h 25.7 km/h 66% 0 mm
09:09 1.8 °C -4.1 °C 1009 hPa South 6.4 km/h 25.7 km/h 65% 0 mm
09:14 1.9 °C -4.2 °C 1008.7 hPa SSW 11.3 km/h 25.7 km/h 64% 0 mm
09:19 2.1 °C -4.1 °C 1008.7 hPa SW 11.3 km/h 20.9 km/h 64% 0 mm
09:24 2.2 °C -3.9 °C 1008.4 hPa SSW 11.3 km/h 24.1 km/h 64% 0 mm
09:29 2.4 °C -3.7 °C 1008.4 hPa SSW 9.7 km/h 24.1 km/h 64% 0 mm
09:34 2.6 °C -3.8 °C 1008.4 hPa South 16.1 km/h 20.9 km/h 63% 0 mm
09:39 2.7 °C -3.7 °C 1008.4 hPa SW 9.7 km/h 19.3 km/h 63% 0 mm
09:44 2.8 °C -3.7 °C 1008.4 hPa SSW 11.3 km/h 22.5 km/h 62% 0 mm
09:49 3 °C -3.8 °C 1008.4 hPa SSW 9.7 km/h 27.4 km/h 61% 0 mm
09:54 3.2 °C -3.4 °C 1008 hPa SW 11.3 km/h 27.4 km/h 62% 0 mm
09:59 3.2 °C -3.6 °C 1008 hPa South 20.9 km/h 29 km/h 61% 0 mm
10:04 3.2 °C -3.4 °C 1008 hPa SW 12.9 km/h 29 km/h 62% 0 mm
10:09 3.4 °C -3.7 °C 1007.7 hPa SSW 11.3 km/h 22.5 km/h 60% 0 mm
10:14 3.7 °C -3.4 °C 1007.7 hPa South 17.7 km/h 24.1 km/h 60% 0 mm
10:19 3.8 °C -3.2 °C 1007.7 hPa SW 12.9 km/h 24.1 km/h 60% 0 mm
10:24 3.7 °C -3.3 °C 1007.7 hPa SW 11.3 km/h 22.5 km/h 60% 0 mm
10:29 3.9 °C -3.1 °C 1007.3 hPa SW 11.3 km/h 20.9 km/h 60% 0 mm
10:34 4 °C -3.3 °C 1007.3 hPa SW 11.3 km/h 20.9 km/h 59% 0 mm
10:39 3.9 °C -3.2 °C 1007.3 hPa WSW 17.7 km/h 25.7 km/h 60% 0 mm
10:44 3.9 °C -3.3 °C 1007 hPa SSW 12.9 km/h 25.7 km/h 59% 0 mm
10:49 4.2 °C -3.2 °C 1007 hPa SW 6.4 km/h 20.9 km/h 59% 0 mm
10:54 4.2 °C -3.3 °C 1007 hPa SW 11.3 km/h 22.5 km/h 58% 0 mm
10:59 4.4 °C -2.9 °C 1007 hPa SW 12.9 km/h 24.1 km/h 59% 0 mm
11:04 4.4 °C -3.3 °C 1007 hPa WSW 20.9 km/h 37 km/h 57% 0 mm
11:14 4.7 °C -3.3 °C 1006.7 hPa South 9.7 km/h 27.4 km/h 56% 0 mm
11:19 4.8 °C -3.4 °C 1006.7 hPa SW 14.5 km/h 32.2 km/h 55% 0 mm
11:24 4.8 °C -3.5 °C 1006.7 hPa WSW 19.3 km/h 29 km/h 55% 0 mm
11:29 4.9 °C -3.3 °C 1006.7 hPa SW 17.7 km/h 30.6 km/h 55% 0 mm
11:34 5.1 °C -3.2 °C 1006.7 hPa SW 16.1 km/h 30.6 km/h 55% 0 mm
11:39 4.9 °C -3.3 °C 1006.3 hPa SW 17.7 km/h 37 km/h 55% 0 mm
11:44 4.9 °C -3.3 °C 1006.3 hPa SW 19.3 km/h 40.2 km/h 55% 0 mm
11:49 5.1 °C -3 °C 1006.3 hPa SW 17.7 km/h 40.2 km/h 56% 0 mm
11:54 5.2 °C -2.8 °C 1006 hPa SW 16.1 km/h 35.4 km/h 56% 0 mm
11:59 5.2 °C -3.1 °C 1006 hPa West 12.9 km/h 33.8 km/h 55% 0 mm
12:04 5.2 °C -3.2 °C 1006 hPa SW 17.7 km/h 37 km/h 55% 0 mm
12:09 5.1 °C -3 °C 1005.6 hPa SW 22.5 km/h 30.6 km/h 56% 0 mm
12:14 5.3 °C -2.6 °C 1005.6 hPa SW 8 km/h 32.2 km/h 57% 0 mm
12:19 5.3 °C -2.6 °C 1005.6 hPa West 12.9 km/h 35.4 km/h 57% 0 mm
12:24 5.1 °C -2.9 °C 1005.3 hPa West 9.7 km/h 35.4 km/h 56% 0 mm
12:29 5.1 °C -2.7 °C 1005.3 hPa SW 20.9 km/h 35.4 km/h 57% 0 mm
12:34 5.1 °C -2.7 °C 1005.3 hPa SW 20.9 km/h 40.2 km/h 57% 0 mm
12:39 5.3 °C -2.1 °C 1005 hPa SW 19.3 km/h 40.2 km/h 59% 0 mm
12:44 5.4 °C -2.2 °C 1005.3 hPa WSW 17.7 km/h 30.6 km/h 58% 0 mm
12:49 5.2 °C -2.6 °C 1005 hPa SW 14.5 km/h 38.6 km/h 57% 0 mm
12:54 5.3 °C -2.1 °C 1005.3 hPa SW 20.9 km/h 38.6 km/h 59% 0 mm
12:59 5.4 °C -2.4 °C 1005 hPa SW 19.3 km/h 38.6 km/h 57% 0 mm
13:04 5.6 °C -2.3 °C 1005.3 hPa WNW 24.1 km/h 45.1 km/h 57% 0 mm
13:09 5.3 °C -2.3 °C 1005 hPa SW 22.5 km/h 40.2 km/h 58% 0 mm
13:14 5.3 °C -2.3 °C 1005 hPa SW 20.9 km/h 40.2 km/h 58% 0 mm
13:19 5.2 °C -2.2 °C 1004.6 hPa SW 14.5 km/h 43.5 km/h 59% 0 mm
13:24 5.3 °C -1.9 °C 1004.6 hPa WSW 17.7 km/h 37 km/h 60% 0 mm
13:29 5.2 °C -2 °C 1004.6 hPa WSW 22.5 km/h 35.4 km/h 60% 0 mm
13:34 5.2 °C -2.2 °C 1004.6 hPa WSW 20.9 km/h 41.8 km/h 59% 0 mm
13:39 5.2 °C -2.2 °C 1004.6 hPa WSW 19.3 km/h 41.8 km/h 59% 0 mm
13:44 5.3 °C -1.8 °C 1004.6 hPa WSW 17.7 km/h 43.5 km/h 60% 0 mm
13:49 5.3 °C -1.9 °C 1004.6 hPa WSW 17.7 km/h 43.5 km/h 60% 0 mm
13:54 5.2 °C -1.7 °C 1004.6 hPa SW 16.1 km/h 41.8 km/h 61% 0 mm
13:59 4.9 °C -1.9 °C 1004.3 hPa West 20.9 km/h 40.2 km/h 61% 0 mm
14:04 4.8 °C -2.1 °C 1004.3 hPa WSW 24.1 km/h 37 km/h 61% 0 mm
14:09 4.8 °C -2.1 °C 1003.9 hPa SW 33.8 km/h 43.5 km/h 61% 0 mm
14:14 4.7 °C -1.7 °C 1003.9 hPa West 20.9 km/h 46.7 km/h 63% 0 mm
14:19 4.8 °C -1.7 °C 1003.9 hPa WSW 14.5 km/h 37 km/h 63% 0 mm
14:24 4.9 °C -1.5 °C 1003.9 hPa WSW 19.3 km/h 37 km/h 63% 0 mm
14:29 4.7 °C -2 °C 1003.9 hPa NW 17.7 km/h 43.5 km/h 62% 0 mm
14:34 4.5 °C -1.7 °C 1003.9 hPa West 12.9 km/h 38.6 km/h 64% 0 mm
14:39 4.4 °C -2.1 °C 1004.3 hPa SW 27.4 km/h 46.7 km/h 63% 0 mm
14:49 3.7 °C -2.1 °C 1003.9 hPa WSW 22.5 km/h 49.9 km/h 66% 0 mm
14:54 3.8 °C -1.8 °C 1003.9 hPa WSW 19.3 km/h 49.9 km/h 67% 0 mm
14:59 3.7 °C -1.9 °C 1003.9 hPa WNW 11.3 km/h 37 km/h 67% 0 mm
15:04 3.6 °C -1.7 °C 1003.9 hPa WSW 12.9 km/h 27.4 km/h 68% 0 mm
15:09 3.6 °C -1.7 °C 1003.9 hPa West 8 km/h 29 km/h 68% 0 mm
15:14 3.7 °C -1.7 °C 1003.6 hPa WSW 16.1 km/h 30.6 km/h 68% 0 mm
15:19 3.8 °C -1.6 °C 1003.6 hPa WSW 25.7 km/h 30.6 km/h 68% 0 mm
15:24 3.7 °C -1.7 °C 1003.6 hPa WSW 19.3 km/h 25.7 km/h 68% 0 mm
15:29 3.6 °C -1.7 °C 1003.6 hPa SW 16.1 km/h 30.6 km/h 68% 0 mm
15:34 3.5 °C -1.7 °C 1003.6 hPa WSW 11.3 km/h 30.6 km/h 69% 0 mm
15:39 3.6 °C -1.4 °C 1003.6 hPa WSW 25.7 km/h 25.7 km/h 70% 0 mm
15:44 3.6 °C -1.4 °C 1003.6 hPa SW 11.3 km/h 27.4 km/h 70% 0 mm
15:49 3.5 °C -1.4 °C 1003.6 hPa WSW 12.9 km/h 27.4 km/h 70% 0 mm
15:54 3.3 °C -1.4 °C 1003.6 hPa SW 14.5 km/h 25.7 km/h 71% 0 mm
15:59 3.3 °C -1.5 °C 1003.6 hPa WSW 12.9 km/h 27.4 km/h 71% 0 mm
16:04 3.1 °C -1.4 °C 1003.6 hPa WSW 14.5 km/h 35.4 km/h 72% 0 mm
16:09 3 °C -1.4 °C 1003.6 hPa WSW 14.5 km/h 35.4 km/h 73% 0 mm
16:14 2.9 °C -1.2 °C 1003.6 hPa SW 14.5 km/h 35.4 km/h 74% 0 mm
16:19 2.8 °C -1.3 °C 1003.6 hPa SW 17.7 km/h 29 km/h 74% 0 mm
16:24 2.8 °C -1.3 °C 1003.6 hPa SW 6.4 km/h 24.1 km/h 74% 0 mm
16:29 2.8 °C -1.2 °C 1003.6 hPa WSW 12.9 km/h 24.1 km/h 75% 0 mm
16:34 2.8 °C -1.2 °C 1003.6 hPa WSW 11.3 km/h 27.4 km/h 75% 0 mm
16:39 2.8 °C -1.2 °C 1003.6 hPa SW 12.9 km/h 27.4 km/h 75% 0 mm
16:44 2.7 °C -1.3 °C 1003.6 hPa West 9.7 km/h 33.8 km/h 75% 0 mm
16:49 2.7 °C -1.3 °C 1003.6 hPa WSW 12.9 km/h 33.8 km/h 75% 0 mm
16:54 2.7 °C -1.2 °C 1003.6 hPa WSW 12.9 km/h 25.7 km/h 76% 0 mm
16:59 2.6 °C -1.2 °C 1003.3 hPa WSW 12.9 km/h 22.5 km/h 76% 0 mm
17:04 2.6 °C -1.3 °C 1003.6 hPa SW 6.4 km/h 25.7 km/h 76% 0 mm
17:09 2.5 °C -1.1 °C 1003.3 hPa SSW 16.1 km/h 22.5 km/h 77% 0 mm
17:14 2.4 °C -1.2 °C 1003.3 hPa SW 14.5 km/h 22.5 km/h 77% 0 mm
17:19 2.4 °C -1.1 °C 1003.3 hPa South 12.9 km/h 24.1 km/h 78% 0 mm
17:24 2.3 °C -1.1 °C 1003.6 hPa SW 14.5 km/h 19.3 km/h 78% 0 mm
17:29 2.3 °C -1.2 °C 1003.6 hPa WSW 11.3 km/h 20.9 km/h 78% 0 mm
17:34 2.3 °C -1 °C 1003.6 hPa WSW 9.7 km/h 20.9 km/h 79% 0 mm
17:39 2.2 °C -1.1 °C 1003.6 hPa WSW 12.9 km/h 22.5 km/h 79% 0 mm
17:44 2.2 °C -1.1 °C 1003.6 hPa WNW 6.4 km/h 19.3 km/h 79% 0 mm
17:49 2.2 °C -1.1 °C 1003.6 hPa SW 16.1 km/h 19.3 km/h 79% 0 mm
17:54 2.2 °C -1.1 °C 1003.9 hPa WSW 17.7 km/h 17.7 km/h 79% 0 mm
17:59 2.2 °C -0.9 °C 1003.6 hPa SW 11.3 km/h 22.5 km/h 80% 0 mm
18:04 2.1 °C -1 °C 1003.6 hPa WSW 11.3 km/h 22.5 km/h 80% 0 mm
18:09 2.1 °C -1.1 °C 1003.6 hPa WSW 8 km/h 17.7 km/h 80% 0 mm
18:14 2.1 °C -1.1 °C 1003.6 hPa WSW 4.8 km/h 14.5 km/h 80% 0 mm
18:19 2.1 °C -1.1 °C 1003.6 hPa SSW 4.8 km/h 9.7 km/h 80% 0 mm
18:24 2.1 °C -0.9 °C 1003.6 hPa SW 6.4 km/h 16.1 km/h 81% 0 mm
18:29 2 °C -0.9 °C 1003.6 hPa SW 9.7 km/h 12.9 km/h 81% 0 mm
18:34 1.9 °C -1 °C 1003.6 hPa SW 8 km/h 16.1 km/h 81% 0 mm
18:39 1.9 °C -1 °C 1003.6 hPa SW 8 km/h 16.1 km/h 81% 0 mm
18:44 1.9 °C -0.8 °C 1003.6 hPa SW 8 km/h 14.5 km/h 82% 0 mm
18:49 1.8 °C -0.9 °C 1003.6 hPa SW 6.4 km/h 16.1 km/h 82% 0 mm
18:54 1.9 °C -0.8 °C 1003.6 hPa SW 6.4 km/h 16.1 km/h 82% 0 mm
18:59 1.9 °C -0.8 °C 1003.6 hPa SSW 4.8 km/h 12.9 km/h 82% 0 mm
19:04 1.9 °C -0.8 °C 1003.6 hPa SSW 6.4 km/h 12.9 km/h 82% 0 mm
19:09 1.9 °C -0.8 °C 1003.6 hPa SSW 8 km/h 14.5 km/h 82% 0 mm
19:14 1.8 °C -0.9 °C 1003.3 hPa SW 8 km/h 11.3 km/h 82% 0 mm
19:19 1.8 °C -0.7 °C 1003.3 hPa SSW 4.8 km/h 12.9 km/h 83% 0 mm
19:24 1.8 °C -0.8 °C 1003.3 hPa SW 4.8 km/h 12.9 km/h 83% 0 mm
19:29 1.7 °C -0.8 °C 1003.3 hPa SSW 3.2 km/h 9.7 km/h 83% 0 mm
19:34 1.7 °C -0.8 °C 1003.3 hPa WSW 9.7 km/h 12.9 km/h 83% 0 mm
19:39 1.8 °C -0.8 °C 1003.3 hPa WSW 8 km/h 12.9 km/h 83% 0 mm
19:44 1.8 °C -0.7 °C 1003.3 hPa SW 6.4 km/h 17.7 km/h 83% 0 mm
19:49 1.8 °C -0.6 °C 1002.9 hPa SW 6.4 km/h 17.7 km/h 84% 0 mm
19:54 1.7 °C -0.7 °C 1002.9 hPa SW 6.4 km/h 14.5 km/h 84% 0 mm
19:59 1.7 °C -0.7 °C 1002.9 hPa SW 6.4 km/h 16.1 km/h 84% 0 mm
20:04 1.7 °C -0.7 °C 1002.9 hPa SW 8 km/h 16.1 km/h 84% 0 mm
20:09 1.7 °C -0.6 °C 1002.6 hPa SW 6.4 km/h 12.9 km/h 85% 0 mm
20:14 1.8 °C -0.5 °C 1002.9 hPa SW 6.4 km/h 11.3 km/h 85% 0 mm
20:19 1.8 °C -0.4 °C 1002.6 hPa SW 4.8 km/h 11.3 km/h 85% 0 mm
20:24 1.9 °C -0.4 °C 1002.6 hPa West 6.4 km/h 9.7 km/h 85% 0 mm
20:29 1.9 °C -0.3 °C 1002.6 hPa SSW 4.8 km/h 12.9 km/h 85% 0 mm
20:34 2.1 °C -0.2 °C 1002.6 hPa SW 3.2 km/h 19.3 km/h 85% 0 mm
20:39 2.1 °C -0.3 °C 1002.6 hPa SW 6.4 km/h 19.3 km/h 84% 0 mm
20:44 2.2 °C -0.3 °C 1002.3 hPa SW 6.4 km/h 16.1 km/h 84% 0 mm
20:49 2.2 °C -0.2 °C 1002.3 hPa SW 6.4 km/h 16.1 km/h 84% 0 mm
20:54 2.3 °C -0.2 °C 1002.3 hPa SW 6.4 km/h 12.9 km/h 84% 0 mm
20:59 2.3 °C -0.2 °C 1002.3 hPa SW 6.4 km/h 12.9 km/h 84% 0 mm
21:04 2.3 °C -0.2 °C 1001.9 hPa WSW 8 km/h 11.3 km/h 84% 0 mm
21:09 2.3 °C -0.1 °C 1001.9 hPa South 3.2 km/h 14.5 km/h 84% 0 mm
21:14 2.3 °C -0.1 °C 1001.9 hPa SW 8 km/h 14.5 km/h 84% 0 mm
21:19 2.4 °C -0.1 °C 1001.9 hPa SSW 4.8 km/h 14.5 km/h 84% 0 mm
21:24 2.3 °C -0.1 °C 1001.9 hPa SW 6.4 km/h 14.5 km/h 84% 0 mm
21:29 2.3 °C -0.1 °C 1001.6 hPa SW 4.8 km/h 14.5 km/h 84% 0 mm
21:34 2.4 °C -0.1 °C 1001.6 hPa SW 6.4 km/h 11.3 km/h 84% 0 mm
21:39 2.4 °C -0.1 °C 1001.6 hPa SSW 4.8 km/h 11.3 km/h 84% 0 mm
21:44 2.4 °C 0 °C 1001.6 hPa SW 8 km/h 12.9 km/h 84% 0 mm
21:49 2.4 °C 0 °C 1001.6 hPa SW 6.4 km/h 12.9 km/h 84% 0 mm
21:54 2.5 °C -0.1 °C 1001.2 hPa SW 6.4 km/h 12.9 km/h 83% 0 mm
21:59 2.5 °C -0.1 °C 1001.2 hPa SSW 3.2 km/h 9.7 km/h 83% 0 mm
22:04 2.6 °C 0 °C 1001.2 hPa SSW 3.2 km/h 11.3 km/h 83% 0 mm
22:09 2.7 °C 0.1 °C 1000.9 hPa SSW 8 km/h 16.1 km/h 83% 0 mm
22:14 2.7 °C 0.1 °C 1000.9 hPa SW 8 km/h 16.1 km/h 83% 0 mm
22:19 2.7 °C 0.1 °C 1000.9 hPa SW 11.3 km/h 17.7 km/h 83% 0 mm
22:24 2.8 °C 0 °C 1000.9 hPa SW 8 km/h 17.7 km/h 82% 0 mm
22:29 2.8 °C 0 °C 1000.9 hPa SW 9.7 km/h 17.7 km/h 82% 0 mm
22:34 2.8 °C 0.2 °C 1000.9 hPa SW 9.7 km/h 17.7 km/h 83% 0 mm
22:39 2.7 °C 0.1 °C 1000.9 hPa WSW 4.8 km/h 14.5 km/h 83% 0 mm
22:44 2.7 °C 0.1 °C 1000.9 hPa West 8 km/h 17.7 km/h 83% 0 mm
22:49 2.7 °C 0.1 °C 1000.6 hPa SW 8 km/h 16.1 km/h 83% 0 mm
22:54 2.6 °C 0.2 °C 1000.6 hPa WSW 11.3 km/h 17.7 km/h 84% 0 mm
22:59 2.6 °C 0 °C 1000.6 hPa WSW 14.5 km/h 19.3 km/h 83% 0 mm
23:04 2.6 °C 0.1 °C 1000.9 hPa WSW 4.8 km/h 20.9 km/h 84% 0 mm
23:09 2.4 °C 0 °C 1000.6 hPa WSW 9.7 km/h 17.7 km/h 84% 0 mm
23:14 2.3 °C 0.1 °C 1000.6 hPa West 4.8 km/h 17.7 km/h 85% 0 mm
23:19 2.3 °C 0 °C 1000.6 hPa WSW 9.7 km/h 19.3 km/h 85% 0 mm
23:24 2.3 °C 0 °C 1000.6 hPa SW 6.4 km/h 17.7 km/h 85% 0 mm
23:29 2.3 °C 0.2 °C 1000.6 hPa West 8 km/h 17.7 km/h 86% 0 mm
23:34 2.2 °C 0.1 °C 1000.2 hPa West 6.4 km/h 17.7 km/h 86% 0 mm
23:39 2.1 °C 0.2 °C 1000.2 hPa WSW 6.4 km/h 12.9 km/h 87% 0 mm
23:44 2.1 °C 0.2 °C 1000.2 hPa WSW 6.4 km/h 12.9 km/h 87% 0 mm
23:49 2.3 °C 0.3 °C 1000.2 hPa SW 9.7 km/h 12.9 km/h 87% 0 mm
23:54 2.4 °C 0.4 °C 1000.2 hPa WSW 3.2 km/h 14.5 km/h 87% 0 mm
23:59 2.4 °C 0.4 °C 999.9 hPa WSW 4.8 km/h 8 km/h 87% 0 mm
Buffalo, New York, USA
Compliments of Weather Underground - 2.5 mb